Australian Towns and Cities METAR Reports

YMHB - Hobart/Tasmania, Australia
Distance from Franklin: NE 55km
Updated: 22/09/2018 22:30
Partly cloudy
Partly cloudy
 Wind from WSW
Wind: WSW 15 km/h
Temperature: 8°C
Wind Chill: 5°C
Dew Point: 1°C
Humidity: 62%
Barometer: 1022 hPa
Clouds: Partly cloudy
Visibility: 10 km
Cloud details: Partly cloudy 914 m
Partly cloudy 1372 m
2018/09/22 12:30 YMHB 221230Z 24008KT 9999 SCT030 SCT045 08/01 Q1022 RF00.0/000.0
YMLT - Launceston Airpo, Australia
Distance from Franklin: N 179km
Updated: 22/09/2018 22:30
Clear
Clear
 Wind from N
Wind: N 4 km/h
Temperature: 7°C
Dew Point: 6°C
Humidity: 93%
Barometer: 1022 hPa
Clouds: Clear
Visibility: 10 km
2018/09/22 12:30 YMLT 221230Z AUTO 35002KT 9999 // NCD 07/06 Q1022 RF00.0/000.2
 
YMML - Melbourne Intl A, Australia
Distance from Franklin: NNW 631km
Updated: 22/09/2018 22:30
Mostly cloudy
Mostly cloudy
 Wind from W
Wind: W 7 km/h
Temperature: 11°C
Dew Point: 7°C
Humidity: 77%
Barometer: 1027 hPa
Clouds: Mostly cloudy
Visibility: 10 km
Cloud details: Few Clouds 823 m
Mostly cloudy 1128 m
2018/09/22 12:30 YMML 221230Z 28004KT 9999 FEW027 BKN037 11/07 Q1027 NOSIG
YSCB - Canberra (civ/Mi, Australia
Distance from Franklin: NNE 888km
Updated: 22/09/2018 22:30
Clear
Clear
 Wind from NE
Wind: NE 7 km/h
Temperature: 5°C
Wind Chill: 3°C
Dew Point: 0°C
Humidity: 70%
Barometer: 1025 hPa
Clouds: Clear
Visibility: 10 km
2018/09/22 12:30 YSCB 221230Z AUTO 05004KT 040V120 9999 // NCD 05/M00 Q1025
 
YSSY - Sydney Intl Airp, Australia
Distance from Franklin: NNE 1083km
Updated: 22/09/2018 22:30
Clear
Clear
 Wind from SW
Wind: SW 7 km/h
Temperature: 15°C
Dew Point: 12°C
Humidity: 82%
Barometer: 1023 hPa
Summary: Clear
Visibility: greater than 10 km
2018/09/22 12:30 YSSY 221230Z 23004KT CAVOK 15/12 Q1023 FM1400 20008KT CAVOK
YPAD - Adelaide Intl Ar, Australia
Distance from Franklin: NW 1166km
Updated: 22/09/2018 22:30
Clear
Clear
 Wind from S
Wind: S 9 km/h
Temperature: 14°C
Dew Point: 9°C
Humidity: 72%
Barometer: 1029 hPa
Summary: Clear
Visibility: greater than 10 km
2018/09/22 12:30 YPAD 221230Z 19005KT CAVOK 14/09 Q1029 NOSIG
 
YBBN - Brisbane Intl Ar, Australia
Distance from Franklin: NNE 1836km
Updated: 22/09/2018 22:30
Clear
Clear
 Wind from calm
Wind: Calm
Temperature: 15°C
Dew Point: 12°C
Humidity: 82%
Barometer: 1025 hPa
Summary: Clear
Visibility: greater than 10 km
2018/09/22 12:30 YBBN 221230Z 00000KT CAVOK 15/12 Q1025 NOSIG
YBMK - Mackay, Australia
Distance from Franklin: N 2456km
Updated: 22/09/2018 22:00
Clear
Clear
 Wind from ESE
Wind: ESE 28 km/h
Temperature: 22°C
Dew Point: 15°C
Humidity: 65%
Barometer: 1023 hPa
Clouds: Clear
Visibility: 10 km
2018/09/22 12:00 YBMK 221200Z AUTO 11015KT 9999 // NCD 22/15 Q1023
 
YBAS - Alice Springs Ar, Australia
Distance from Franklin: NNW 2462km
Updated: 22/09/2018 22:30
Clear
Clear
 Wind from SE
Wind: SE 9 km/h
Temperature: 16°C
Dew Point: 3°C
Humidity: 42%
Barometer: 1026 hPa
Clouds: Clear
Visibility: 10 km
2018/09/22 12:30 YBAS 221230Z AUTO 13005KT 9999 // NCD 16/03 Q1026 RF00.0/000.0 PRESENT WEATHER SENSOR US
YBTL - Townsville(Civ/M, Australia
Distance from Franklin: N 2655km
Updated: 22/09/2018 22:30
Clear
Clear
 Wind from SSE
Wind: SSE 19 km/h
Temperature: 22°C
Dew Point: 14°C
Humidity: 61%
Barometer: 1021 hPa
Clouds: Clear
Visibility: 10 km
2018/09/22 12:30 YBTL 221230Z AUTO 15010KT 9999 // NCD 22/14 Q1021
 
YBCS - Cairns Airport, Australia
Distance from Franklin: N 2923km
Updated: 22/09/2018 22:30
Partly cloudy
Partly cloudy
 Wind from SSE
Wind: SSE 19 km/h
Temperature: 22°C
Dew Point: 17°C
Humidity: 73%
Barometer: 1020 hPa
Clouds: Partly cloudy
Visibility: 10 km
Cloud details: Few Clouds 762 m
Partly cloudy 1372 m
2018/09/22 12:30 YBCS 221230Z 15010KT 9999 FEW025 SCT045 22/17 Q1020 INTER 1400/1530 4000 SHRA FEW008 BKN015
YPPH - Perth Intl/Belmo, Australia
Distance from Franklin: WNW 2982km
Updated: 22/09/2018 22:30
Clear
Clear
 Wind from SSW
Wind: SSW 19 km/h
Temperature: 18°C
Dew Point: 11°C
Humidity: 64%
Barometer: 1020 hPa
Summary: Clear
Visibility: greater than 10 km
2018/09/22 12:30 YPPH 221230Z 20010KT CAVOK 18/11 Q1020 NOSIG
 
YPDN - Darwin (civ/Mil), Australia
Distance from Franklin: NNW 3749km
Updated: 22/09/2018 22:30
Few Clouds
Few Clouds
 Wind from WNW
Wind: WNW 7 km/h
Temperature: 28°C
Heat Index: 30°C
Dew Point: 21°C
Humidity: 66%
Barometer: 1015 hPa
Clouds: Few Clouds
Visibility: 10 km
Cloud details: Few Clouds 549 m
2018/09/22 12:30 YPDN 221230Z 29004KT 9999 FEW018 28/21 Q1015
YBWX - Barrow Island, Australia
Distance from Franklin: NW 3832km
Updated: 22/09/2018 22:00

 Wind from SW
Wind: SW 15 km/h
Temperature: 23°C
Dew Point: 17°C
Humidity: 69%
Barometer: 1017 hPa
2018/09/22 12:00 YBWX 221200Z AUTO 23008KT //// // ////// 23/17 Q1017